createdAt,value
2022-11-17T00:02:31.806Z,1.73
2022-11-17T00:05:55.317Z,1.60
2022-11-17T00:09:20.228Z,2.47
2022-11-17T00:13:01.572Z,1.90
2022-11-17T00:16:25.047Z,2.47
2022-11-17T00:20:06.358Z,2.07
2022-11-17T00:23:46.880Z,2.07
2022-11-17T00:27:12.590Z,1.80
2022-11-17T00:30:53.640Z,1.50
2022-11-17T00:34:19.840Z,1.80
2022-11-17T00:38:04.068Z,2.00
2022-11-17T00:41:28.664Z,1.50
2022-11-17T00:44:53.563Z,1.53
2022-11-17T00:48:16.976Z,1.37
2022-11-17T00:51:40.733Z,1.20
2022-11-17T00:55:04.822Z,1.43
2022-11-17T00:58:28.303Z,1.30
2022-11-17T01:01:53.358Z,1.50
2022-11-17T01:05:17.109Z,1.50
2022-11-17T01:08:41.071Z,1.13
2022-11-17T01:12:04.806Z,1.33
2022-11-17T01:15:28.294Z,1.50
2022-11-17T01:18:54.610Z,1.37
2022-11-17T01:22:18.238Z,1.50
2022-11-17T01:25:41.676Z,1.60
2022-11-17T01:29:06.737Z,2.23
2022-11-17T01:32:30.158Z,1.80
2022-11-17T01:35:54.970Z,1.50
2022-11-17T01:39:18.456Z,1.60
2022-11-17T01:42:41.912Z,2.20
2022-11-17T01:46:08.537Z,1.80
2022-11-17T01:49:33.712Z,1.90
2022-11-17T01:53:02.247Z,1.87
2022-11-17T01:56:33.106Z,2.20
2022-11-17T02:00:02.436Z,2.20
2022-11-17T02:03:32.645Z,1.57
2022-11-17T02:07:04.153Z,1.53
2022-11-17T02:10:32.616Z,1.37
2022-11-17T02:13:57.555Z,1.63
2022-11-17T02:17:23.994Z,1.20
2022-11-17T02:21:25.320Z,1.23
2022-11-17T02:25:31.800Z,1.17
2022-11-17T02:29:07.175Z,1.10
2022-11-17T02:32:43.177Z,1.10
2022-11-17T02:36:18.971Z,1.30
2022-11-17T02:39:50.985Z,1.07
2022-11-17T02:43:38.507Z,1.20
2022-11-17T02:47:10.375Z,1.10
2022-11-17T02:50:37.450Z,1.40
2022-11-17T02:54:03.044Z,1.20
2022-11-17T02:57:31.035Z,0.97
2022-11-17T03:01:18.134Z,1.27
2022-11-17T03:04:59.931Z,1.00
2022-11-17T03:08:36.171Z,1.33
2022-11-17T03:12:10.478Z,1.20
2022-11-17T03:15:44.985Z,1.50
2022-11-17T03:19:18.577Z,1.10
2022-11-17T03:22:52.060Z,0.90
2022-11-17T03:26:24.679Z,0.90
2022-11-17T03:29:53.485Z,0.90
2022-11-17T03:33:21.739Z,1.17
2022-11-17T03:36:58.065Z,1.07
2022-11-17T03:40:27.955Z,1.10
2022-11-17T03:43:55.856Z,1.10
2022-11-17T03:47:23.653Z,1.17
2022-11-17T03:50:57.265Z,1.10
2022-11-17T03:54:20.864Z,1.10
2022-11-17T03:57:55.343Z,1.40
2022-11-17T04:01:22.082Z,1.30
2022-11-17T04:05:03.237Z,1.33
2022-11-17T04:08:29.456Z,1.50
2022-11-17T04:12:10.419Z,1.13
2022-11-17T04:15:53.688Z,1.30
2022-11-17T04:19:17.074Z,1.33
2022-11-17T04:22:40.503Z,1.40
2022-11-17T04:26:21.227Z,1.33
2022-11-17T04:29:44.645Z,1.30
2022-11-17T04:33:09.413Z,1.70
2022-11-17T04:36:37.097Z,1.40
2022-11-17T04:40:00.777Z,1.30
2022-11-17T04:43:23.295Z,1.33
2022-11-17T04:46:47.312Z,1.50
2022-11-17T04:50:12.374Z,1.30
2022-11-17T04:53:36.121Z,1.40
2022-11-17T04:56:59.937Z,1.40
2022-11-17T05:00:23.637Z,1.50
2022-11-17T05:03:50.182Z,1.40
2022-11-17T05:07:15.142Z,1.70
2022-11-17T05:10:56.162Z,1.30
2022-11-17T05:14:22.709Z,1.20
2022-11-17T05:17:45.190Z,1.50
2022-11-17T05:21:12.108Z,1.30
2022-11-17T05:24:36.597Z,1.30
2022-11-17T05:28:00.062Z,1.20
2022-11-17T05:31:24.161Z,1.13
2022-11-17T05:34:47.576Z,1.10
2022-11-17T05:38:11.207Z,1.17
2022-11-17T05:41:37.052Z,1.07
2022-11-17T05:45:00.500Z,1.20
2022-11-17T05:48:24.146Z,1.10
2022-11-17T05:51:52.502Z,1.20
2022-11-17T05:55:16.740Z,1.10
2022-11-17T05:58:48.589Z,1.30
2022-11-17T06:02:19.263Z,1.10
2022-11-17T06:05:43.640Z,1.30
2022-11-17T06:09:07.235Z,1.40
2022-11-17T06:12:30.862Z,1.40
2022-11-17T06:15:56.994Z,1.37
2022-11-17T06:19:28.642Z,1.20
2022-11-17T06:22:52.586Z,1.20
2022-11-17T06:26:17.470Z,1.40
2022-11-17T06:29:44.704Z,1.10
2022-11-17T06:33:15.266Z,1.30
2022-11-17T06:36:38.821Z,1.23
2022-11-17T06:40:06.032Z,1.20
2022-11-17T06:43:29.554Z,1.10
2022-11-17T06:46:53.039Z,1.17
2022-11-17T06:50:18.580Z,0.97
2022-11-17T06:53:42.201Z,1.00
2022-11-17T06:57:05.980Z,1.00
2022-11-17T07:00:31.575Z,0.90
2022-11-17T07:03:57.802Z,0.90
2022-11-17T07:07:22.845Z,1.00
2022-11-17T07:10:49.356Z,0.93
2022-11-17T07:14:13.276Z,0.83
2022-11-17T07:17:37.202Z,0.90
2022-11-17T07:21:04.001Z,0.90
2022-11-17T07:24:28.949Z,0.93
2022-11-17T07:28:00.338Z,0.90
2022-11-17T07:31:24.311Z,0.87
2022-11-17T07:34:47.848Z,0.80
2022-11-17T07:38:11.446Z,1.10
2022-11-17T07:41:36.481Z,0.80
2022-11-17T07:45:00.172Z,0.90
2022-11-17T07:48:24.056Z,0.90
2022-11-17T07:51:47.565Z,0.90
2022-11-17T07:55:11.403Z,0.90
2022-11-17T07:58:37.113Z,1.00
2022-11-17T08:02:00.874Z,0.90
2022-11-17T08:05:25.914Z,0.90
2022-11-17T08:08:49.708Z,0.80
2022-11-17T08:12:13.256Z,0.77
2022-11-17T08:15:38.168Z,0.83
2022-11-17T08:19:01.780Z,0.80
2022-11-17T08:22:25.856Z,0.90
2022-11-17T08:25:49.412Z,0.73
2022-11-17T08:29:12.965Z,1.20
2022-11-17T08:32:37.832Z,0.70
2022-11-17T08:36:03.031Z,0.83
2022-11-17T08:39:26.754Z,0.70
2022-11-17T08:43:00.712Z,0.60
2022-11-17T08:46:25.816Z,0.80
2022-11-17T08:49:50.786Z,0.80
2022-11-17T08:53:16.540Z,0.70
2022-11-17T08:56:40.305Z,0.67
2022-11-17T09:00:05.082Z,0.90
2022-11-17T09:03:28.672Z,0.80
2022-11-17T09:06:53.589Z,1.03
2022-11-17T09:10:17.420Z,0.80
2022-11-17T09:13:42.140Z,0.67
2022-11-17T09:17:05.804Z,0.70
2022-11-17T09:20:31.785Z,0.70
2022-11-17T09:23:57.287Z,0.70
2022-11-17T09:27:20.921Z,0.80
2022-11-17T09:30:44.459Z,0.70
2022-11-17T09:34:08.418Z,0.60
2022-11-17T09:37:31.982Z,0.70
2022-11-17T09:40:58.497Z,0.90
2022-11-17T09:44:39.763Z,0.70
2022-11-17T09:48:42.043Z,0.63
2022-11-17T09:52:06.552Z,0.70
2022-11-17T09:55:37.205Z,0.80
2022-11-17T09:59:12.018Z,0.70
2022-11-17T10:02:35.790Z,0.70
2022-11-17T10:06:01.809Z,0.70
2022-11-17T10:09:42.112Z,0.90
2022-11-17T10:13:14.323Z,0.60
2022-11-17T10:16:42.579Z,0.70
2022-11-17T10:20:17.439Z,0.80
2022-11-17T10:23:47.320Z,0.90
2022-11-17T10:27:23.399Z,1.43
2022-11-17T10:30:55.758Z,1.13
2022-11-17T10:34:40.589Z,0.70
2022-11-17T10:38:14.279Z,0.97
2022-11-17T10:41:42.357Z,1.03
2022-11-17T10:45:16.692Z,0.90
2022-11-17T10:48:55.941Z,1.17
2022-11-17T10:52:24.985Z,1.03
2022-11-17T10:55:59.156Z,0.90
2022-11-17T10:59:30.735Z,1.07
2022-11-17T11:03:08.347Z,1.10
2022-11-17T11:06:34.491Z,1.20
2022-11-17T11:10:08.087Z,1.03
2022-11-17T11:13:42.371Z,1.20
2022-11-17T11:17:13.934Z,1.10
2022-11-17T11:20:50.165Z,0.93
2022-11-17T11:24:26.461Z,0.90
2022-11-17T11:28:21.024Z,0.83
2022-11-17T11:32:07.787Z,0.90
2022-11-17T11:35:44.945Z,1.20
2022-11-17T11:39:28.850Z,1.00
2022-11-17T11:42:59.471Z,0.90
2022-11-17T11:46:42.983Z,1.00
2022-11-17T11:50:17.061Z,1.07
2022-11-17T11:53:52.332Z,1.40
2022-11-17T11:57:23.279Z,1.23
2022-11-17T12:00:50.034Z,1.13
2022-11-17T12:04:29.957Z,1.10
2022-11-17T12:08:05.966Z,1.50
2022-11-17T12:11:52.012Z,1.10
2022-11-17T12:15:36.967Z,0.83
2022-11-17T12:19:00.975Z,1.00
2022-11-17T12:23:03.665Z,1.10
2022-11-17T12:26:30.095Z,1.13
2022-11-17T12:29:53.565Z,1.10
2022-11-17T12:33:17.075Z,0.80
2022-11-17T12:36:40.775Z,1.17
2022-11-17T12:40:09.628Z,1.43
2022-11-17T12:43:34.177Z,1.20
2022-11-17T12:47:11.729Z,1.10
2022-11-17T12:51:03.475Z,0.93
2022-11-17T12:54:39.901Z,1.00
2022-11-17T12:58:19.533Z,1.13
2022-11-17T13:01:57.479Z,1.00
2022-11-17T13:05:25.113Z,1.10
2022-11-17T13:08:57.822Z,1.07
2022-11-17T13:12:27.036Z,1.00
2022-11-17T13:15:56.053Z,1.20
2022-11-17T13:19:37.277Z,1.10
2022-11-17T13:23:02.133Z,1.20
2022-11-17T13:26:28.382Z,1.40
2022-11-17T13:29:52.289Z,1.47
2022-11-17T13:33:24.141Z,1.30
2022-11-17T13:36:54.868Z,1.00
2022-11-17T13:40:24.235Z,1.00
2022-11-17T13:43:50.688Z,0.87
2022-11-17T13:47:21.332Z,0.90
2022-11-17T13:50:46.924Z,1.10
2022-11-17T13:54:18.655Z,1.77
2022-11-17T13:57:55.834Z,0.90
2022-11-17T14:01:24.895Z,1.20
2022-11-17T14:05:23.123Z,0.90
2022-11-17T14:09:06.302Z,1.03
2022-11-17T14:12:29.860Z,1.10
2022-11-17T14:16:00.820Z,1.07
2022-11-17T14:19:34.385Z,0.80
2022-11-17T14:23:03.690Z,0.93
2022-11-17T14:26:28.864Z,0.83
2022-11-17T14:29:52.426Z,1.17
2022-11-17T14:33:15.993Z,1.17
2022-11-17T14:36:40.970Z,0.80
2022-11-17T14:40:05.853Z,1.10
2022-11-17T14:43:30.796Z,1.00
2022-11-17T14:46:54.404Z,0.80
2022-11-17T14:50:20.185Z,0.83
2022-11-17T14:53:44.534Z,1.00
2022-11-17T14:57:08.071Z,1.10
2022-11-17T15:00:33.271Z,0.90
2022-11-17T15:03:59.931Z,1.03
2022-11-17T15:07:23.608Z,0.87
2022-11-17T15:10:47.434Z,1.03
2022-11-17T15:14:12.564Z,0.80
2022-11-17T15:17:37.531Z,1.10
2022-11-17T15:21:02.939Z,0.87
2022-11-17T15:24:26.493Z,1.13
2022-11-17T15:27:49.984Z,1.13
2022-11-17T15:31:16.624Z,1.10
2022-11-17T15:34:41.446Z,1.00
2022-11-17T15:38:05.044Z,1.00
2022-11-17T15:41:32.561Z,1.00
2022-11-17T15:44:56.543Z,1.03
2022-11-17T15:48:20.128Z,0.90
2022-11-17T15:51:45.128Z,1.00
2022-11-17T15:55:09.463Z,0.80
2022-11-17T15:58:33.197Z,1.10
2022-11-17T16:01:57.167Z,1.17
2022-11-17T16:05:20.951Z,0.70
2022-11-17T16:08:46.340Z,0.97
2022-11-17T16:12:09.954Z,0.70
2022-11-17T16:15:33.609Z,1.03
2022-11-17T16:18:57.762Z,1.00
2022-11-17T16:22:21.593Z,1.10
2022-11-17T16:25:49.407Z,1.00
2022-11-17T16:29:13.296Z,1.00
2022-11-17T16:32:37.052Z,1.20
2022-11-17T16:36:06.124Z,0.83
2022-11-17T16:39:29.606Z,0.90
2022-11-17T16:42:54.502Z,1.13
2022-11-17T16:46:20.858Z,0.90
2022-11-17T16:49:47.873Z,0.80
2022-11-17T16:53:14.505Z,1.00
2022-11-17T16:56:38.107Z,1.30
2022-11-17T17:00:03.426Z,1.50
2022-11-17T17:03:26.925Z,1.10
2022-11-17T17:06:50.516Z,1.10
2022-11-17T17:10:14.180Z,1.20
2022-11-17T17:13:38.195Z,1.23
2022-11-17T17:17:03.110Z,0.87
2022-11-17T17:20:26.650Z,1.00
2022-11-17T17:23:50.276Z,1.03
2022-11-17T17:27:13.847Z,0.90
2022-11-17T17:30:37.408Z,0.70
2022-11-17T17:34:02.802Z,0.93
2022-11-17T17:37:26.406Z,0.90
2022-11-17T17:40:50.639Z,0.93
2022-11-17T17:44:18.141Z,0.80
2022-11-17T17:47:41.693Z,0.93
2022-11-17T17:51:09.986Z,0.87
2022-11-17T17:54:33.683Z,0.90
2022-11-17T17:57:57.394Z,0.80
2022-11-17T18:01:24.234Z,1.00
2022-11-17T18:04:47.833Z,0.80
2022-11-17T18:08:13.243Z,0.80
2022-11-17T18:11:37.347Z,1.00
2022-11-17T18:15:01.963Z,0.80
2022-11-17T18:18:25.726Z,0.93
2022-11-17T18:21:49.373Z,0.93
2022-11-17T18:25:17.802Z,0.90
2022-11-17T18:28:41.662Z,0.70
2022-11-17T18:32:05.656Z,0.70
2022-11-17T18:35:29.208Z,0.70
2022-11-17T18:38:53.237Z,0.73
2022-11-17T18:42:19.803Z,0.70
2022-11-17T18:45:43.638Z,0.80
2022-11-17T18:49:07.261Z,0.80
2022-11-17T18:52:31.575Z,1.10
2022-11-17T18:56:00.549Z,1.10
2022-11-17T18:59:25.515Z,0.93
2022-11-17T19:02:49.058Z,0.80
2022-11-17T19:06:17.382Z,0.90
2022-11-17T19:09:40.853Z,0.70
2022-11-17T19:13:04.670Z,0.90
2022-11-17T19:16:30.248Z,0.97
2022-11-17T19:19:53.735Z,0.90
2022-11-17T19:23:17.206Z,0.70
2022-11-17T19:26:41.005Z,0.97
2022-11-17T19:30:05.185Z,0.80
2022-11-17T19:33:32.777Z,1.10
2022-11-17T19:36:56.370Z,1.00
2022-11-17T19:40:20.083Z,1.10
2022-11-17T19:43:45.663Z,1.23
2022-11-17T19:47:09.782Z,1.30
2022-11-17T19:50:34.736Z,1.37
2022-11-17T19:54:03.507Z,1.40
2022-11-17T19:57:26.996Z,1.40
2022-11-17T20:00:50.708Z,1.90
2022-11-17T20:04:14.359Z,1.33
2022-11-17T20:07:39.955Z,0.80
2022-11-17T20:11:06.634Z,1.10
2022-11-17T20:14:31.630Z,0.70
2022-11-17T20:17:55.206Z,0.90
2022-11-17T20:21:19.462Z,0.70
2022-11-17T20:24:44.738Z,0.70
2022-11-17T20:28:08.589Z,0.80
2022-11-17T20:31:36.174Z,0.60
2022-11-17T20:34:59.987Z,0.60
2022-11-17T20:38:23.472Z,0.60
2022-11-17T20:41:48.389Z,0.70
2022-11-17T20:45:12.512Z,0.60
2022-11-17T20:48:36.751Z,0.60
2022-11-17T20:52:00.382Z,0.60
2022-11-17T20:55:24.050Z,0.70
2022-11-17T20:58:49.354Z,0.60
2022-11-17T21:02:13.291Z,0.60
2022-11-17T21:05:37.224Z,0.63
2022-11-17T21:09:00.784Z,0.60
2022-11-17T21:12:24.393Z,0.60
2022-11-17T21:15:49.404Z,0.70
2022-11-17T21:19:14.165Z,0.60
2022-11-17T21:22:38.083Z,0.63
2022-11-17T21:26:05.335Z,0.60
2022-11-17T21:29:29.080Z,0.50
2022-11-17T21:32:55.025Z,0.50
2022-11-17T21:36:19.342Z,0.60
2022-11-17T21:39:43.054Z,0.50
2022-11-17T21:43:06.686Z,0.53
2022-11-17T21:46:32.717Z,0.50
2022-11-17T21:49:57.629Z,0.60
2022-11-17T21:53:21.618Z,0.60
2022-11-17T21:56:46.108Z,0.60
2022-11-17T22:00:11.501Z,0.60
2022-11-17T22:03:35.565Z,0.60
2022-11-17T22:07:00.504Z,0.60
2022-11-17T22:10:24.417Z,0.70
2022-11-17T22:13:48.011Z,0.53
2022-11-17T22:17:11.512Z,0.70
2022-11-17T22:20:35.167Z,0.60
2022-11-17T22:24:00.453Z,0.60
2022-11-17T22:27:26.341Z,0.60
2022-11-17T22:30:49.933Z,0.80
2022-11-17T22:34:14.012Z,0.73
2022-11-17T22:37:37.471Z,0.67
2022-11-17T22:41:03.605Z,0.53
2022-11-17T22:44:27.088Z,0.60
2022-11-17T22:47:50.552Z,0.60
2022-11-17T22:51:34.983Z,0.50
2022-11-17T22:54:58.485Z,0.60
2022-11-17T22:58:23.388Z,0.50
2022-11-17T23:01:46.855Z,0.60
2022-11-17T23:05:10.628Z,0.60
2022-11-17T23:08:34.584Z,0.60
2022-11-17T23:11:58.154Z,0.70
2022-11-17T23:15:23.259Z,0.53
2022-11-17T23:18:46.793Z,0.60
2022-11-17T23:22:11.708Z,0.60
2022-11-17T23:25:35.218Z,0.60
2022-11-17T23:28:59.067Z,0.60
2022-11-17T23:32:23.935Z,0.50
2022-11-17T23:35:47.496Z,0.60
2022-11-17T23:39:11.126Z,0.60
2022-11-17T23:42:38.708Z,0.63
2022-11-17T23:46:07.878Z,0.60
2022-11-17T23:49:32.885Z,0.60
2022-11-17T23:52:56.391Z,0.60
2022-11-17T23:56:21.379Z,0.70
2022-11-17T23:59:44.988Z,0.60
